الصفحة الرئيسية
METAR-TAF:

METAR-TAF

مطار :

مطار برج العرب الدولي

الإسكندرية-مطار برج العرب, مصر

دائرة عرض: 31-31N, خط طول: 030-10E, ارتفاع: 54 متر

مراقبة الطقس الحالي

تاريخ ووقت الإصدار 24 دقيقة قبل الساعة 10:00UTC
ريح 7 عقدة من الغرب
درجة الحرارة 15°درجة مئوية
الرطوبة 82%
ضغط 1019 hPa
الرؤية 10 كم أو أكثر
غيوم مفككة على ارتفاع 2000 قدم

METAR: HEBA 221000Z 28007KT 9999 BKN020 15/12 Q1019 RESHRA NOSIG

زمن: 12:24 (10:24 UTC)

توقعات

تاريخ ووقت الإصدار 5ساعات و 24 دقيقة قبل الساعة 05:00UTC
التوقعات صالحة من22 الساعة 06 UTC إلى 23 الساعة 12 UTC
ريح 8 عقدة من الغرب/الشمال الغربي
الرؤية 10 كم أو أكثر
غيوم متفرقة على ارتفاع 2000 قدم
مؤقت
من 22 الساعة 06 UTC إلى 22 الساعة 12 UTC
الرؤية: 8000 متر
غيوم مفككة على ارتفاع 2000 قدم
مطر خفيف

TAF: HEBA 220500Z 2206/2312 29008KT 9999 SCT020 TEMPO 2206/2212 8000 -RA BKN020

أرصاد الطقس والتوقعات من أكثر من 4000 مطار (تقارير الطقس للمطار METAR والتنبؤ بالطقس بالمطارTAF).

المحطات المتاحة هي النقط الصفراء والحمراء على الخريطة.

حرك المؤشر فوق النقطة لمعرفة اسم المحطة.

ثم انقر لمعرفة أرصاد وتوقعات الطقس.

لتغيير الخارطة: اضغط على الأزرار الخضراء مع رمز الصليب الأسود للتكبير. على الزر الأخضر مع شرطة للتصغير، أو على الأسهم الخضراء للخرائط المجاورة.


METAR-TAF: